createdAt,value
2023-02-15T08:32:48.873Z,1.20
2023-02-15T08:47:50.208Z,1.50
2023-02-15T08:52:43.676Z,1.60
2023-02-15T08:57:38.221Z,1.70
2023-02-15T09:02:32.144Z,1.90
2023-02-15T09:14:31.580Z,2.10
2023-02-15T09:24:46.131Z,2.30
2023-02-15T09:29:40.264Z,2.30
2023-02-15T09:34:35.094Z,2.40
2023-02-15T09:39:29.728Z,2.40
2023-02-15T09:44:35.486Z,2.70
2023-02-15T09:49:38.814Z,2.90
2023-02-15T09:54:52.987Z,3.20
2023-02-15T09:59:59.761Z,3.60
2023-02-15T10:05:08.015Z,3.90
2023-02-15T10:10:16.670Z,4.20
2023-02-15T10:15:29.694Z,4.30
2023-02-15T10:20:31.232Z,4.30
2023-02-15T10:25:37.743Z,4.20
2023-02-15T10:30:42.203Z,4.40
2023-02-15T10:35:49.125Z,4.60
2023-02-15T10:40:52.146Z,5.10
2023-02-15T10:45:58.195Z,5.50
2023-02-15T10:50:53.724Z,5.90
2023-02-15T10:55:57.438Z,6.20
2023-02-15T11:01:02.465Z,6.70
2023-02-15T11:06:05.026Z,7.00
2023-02-15T11:11:03.562Z,7.60
2023-02-15T11:16:02.094Z,8.10
2023-02-15T11:20:58.886Z,8.30
2023-02-15T11:25:58.839Z,8.60
2023-02-15T11:31:00.649Z,8.80
2023-02-15T11:35:59.853Z,9.00
2023-02-15T11:40:57.693Z,9.60
2023-02-15T11:45:51.361Z,10.10
2023-02-15T11:50:47.413Z,10.60
2023-02-15T11:55:41.221Z,10.90
2023-02-15T12:00:38.058Z,11.40
2023-02-15T12:05:32.683Z,11.50
2023-02-15T12:10:30.559Z,12.10
2023-02-15T12:15:36.452Z,12.30
2023-02-15T12:20:34.562Z,12.70
2023-02-15T12:25:35.605Z,12.90
2023-02-15T12:30:35.162Z,13.20
2023-02-15T12:35:32.093Z,13.40
2023-02-15T12:40:31.319Z,13.50
2023-02-15T12:45:29.002Z,13.50
2023-02-15T12:50:34.537Z,13.70
2023-02-15T12:55:31.040Z,13.80
2023-02-15T13:00:33.052Z,14.10
2023-02-15T13:05:32.033Z,14.00
2023-02-15T13:10:29.865Z,13.80
2023-02-15T13:15:33.889Z,14.00
2023-02-15T13:20:28.766Z,14.20
2023-02-15T13:25:25.434Z,14.70
2023-02-15T13:30:27.553Z,15.20
2023-02-15T13:35:24.198Z,15.60
2023-02-15T13:40:24.741Z,15.90
2023-02-15T13:45:39.030Z,16.30
2023-02-15T13:51:06.214Z,16.40
2023-02-15T13:56:08.776Z,16.80
2023-02-15T14:01:11.036Z,17.30
2023-02-15T14:06:38.797Z,17.70
2023-02-15T14:11:40.574Z,17.80
2023-02-15T14:16:47.990Z,17.80
2023-02-15T14:21:54.062Z,17.80
2023-02-15T14:26:55.049Z,17.40
2023-02-15T14:31:52.745Z,17.70
2023-02-15T14:36:48.244Z,17.80
2023-02-15T14:41:46.733Z,17.20
2023-02-15T14:46:48.268Z,16.70
2023-02-15T14:57:27.702Z,16.60
2023-02-15T15:02:25.639Z,15.60
2023-02-15T15:07:23.409Z,14.50
2023-02-15T15:12:41.259Z,11.40
2023-02-15T15:17:58.550Z,9.80
2023-02-15T15:22:52.845Z,8.90
2023-02-15T15:27:57.532Z,8.50
2023-02-15T15:33:01.324Z,8.20
2023-02-15T15:38:13.073Z,8.00
2023-02-15T15:43:45.430Z,7.70
2023-02-15T15:48:40.664Z,7.50
2023-02-15T15:53:43.665Z,7.30
2023-02-15T15:58:43.731Z,7.10
2023-02-15T16:03:40.554Z,6.80
2023-02-15T16:08:36.202Z,6.60
2023-02-15T16:13:30.152Z,6.40
2023-02-15T16:18:28.814Z,6.20
2023-02-15T16:23:52.544Z,6.00
2023-02-15T16:28:51.286Z,5.80
2023-02-15T16:33:47.950Z,5.60
2023-02-15T16:39:13.638Z,5.50
2023-02-15T16:44:14.529Z,5.50
2023-02-15T16:49:18.861Z,5.20
